Terminal Aerodrome Forecast
Issued by NWS Sterling, VA

Current Version | Previous Version | Graphics & Text | Print | Product List | Glossary On
Versions: 1 2 3 4 5 6 7 8 9 10 11 12 13 14 15 16 17 18 19 20 21 22
000
FTUS41 KLWX 172000 AAA
TAFDCA
TAF AMD
KDCA 172044Z 1721/1818 30012G19KT P6SM FEW050
     FM180200 29008KT P6SM SKC
     FM181400 30012G19KT P6SM FEW040=

USA.gov is the U.S. government's official web portal to all federal, state and local government web resources and services.